Childress Municipal Airport
KCDS : rendu visible

Aérodrome :











RETROUVEZ-NOUS SUR...

 
LOGIN :

S'inscrire | Disclaimer

   EN    FR    IT 

 









Légende :    VFR   VFR Marginal   IFR   IFR Intensif   IFR Très Intensif
Visi : 
Plafond : 
>= 8 km
>= 3000ft
5 à 8 km
1000 à 3000 ft
1500m à 5 km
500 à 1000 ft
800 à 1500m
200 à 500 ft
< 800m
< 200 ft
Symboles :   Orages  Brouillard  Fortes neiges  Fortes précipitations  Vent > 20 kt






- Altitude de l'aérodrome : 1954 ft


KCDS - Childress Municipal

DERNIER METAR :
  • 222253Z AUTO 05007KT 10SM OVC039 06/00 A3010 RMK AO2 SLP197 T00610000

METARs EXPIRÉS :
  • 222153Z AUTO 03004KT 10SM OVC037 07/00 A3010 RMK AO2 SLP196 T00670000
  • 222109Z AUTO 31008KT 10SM SCT028 07/01 A3011 RMK AO2 T00720006
  • 222053Z AUTO 34010KT 10SM BKN027 07/01 A3011 RMK AO2 SLP200 T00670006 56025

TAF KCDS
Valide du 22 à 23h jusqu'au 23 à 18h UTC


222233Z 2223/2318 04006KT P6SM OVC035
FM230600 04004KT 6SM BR OVC005
FM231500 22011KT P6SM SCT250



MET'MAP, la Météo Aéronautique d'un coup d'oeil ! - Copyright ORBIFLY Décembre 2007 - Disclaimer

ORBIFLY MET'MAP TEAM :

Programmation & Développement : Alexandra Zaïnal
Conception & Développement : Baudouin d'Aumeries
Co-Programmation & Développement : Marc-Olivier Méhu
Soutien technique & logistique : Manuel Goepfert

Contact : metmap@orbifly.com




SOURCES & CREDITS :

   NOAA       Earth
Advisory